createdAt,value
2023-02-24T00:04:06.971Z,0
2023-02-24T00:09:11.130Z,0
2023-02-24T00:14:15.327Z,0
2023-02-24T00:19:19.482Z,0
2023-02-24T00:24:23.632Z,0
2023-02-24T00:29:27.814Z,0
2023-02-24T00:34:31.983Z,0
2023-02-24T00:39:36.270Z,0
2023-02-24T00:44:40.316Z,0
2023-02-24T00:49:44.472Z,0
2023-02-24T00:54:48.628Z,0
2023-02-24T00:59:52.792Z,0
2023-02-24T01:04:56.925Z,0
2023-02-24T01:10:01.114Z,0
2023-02-24T01:15:05.258Z,0
2023-02-24T01:20:07.566Z,0
2023-02-24T01:25:11.724Z,0
2023-02-24T01:30:13.998Z,0
2023-02-24T01:35:18.168Z,0
2023-02-24T01:40:20.427Z,0
2023-02-24T01:45:24.599Z,0
2023-02-24T01:50:28.732Z,0
2023-02-24T01:55:32.929Z,0
2023-02-24T02:00:37.121Z,0
2023-02-24T02:05:41.265Z,0
2023-02-24T02:10:43.502Z,0
2023-02-24T02:15:47.734Z,0
2023-02-24T02:20:51.816Z,0
2023-02-24T02:25:56.000Z,0
2023-02-24T02:31:00.189Z,0
2023-02-24T02:36:04.309Z,0
2023-02-24T02:41:08.473Z,0
2023-02-24T02:46:12.669Z,0
2023-02-24T02:51:16.854Z,0
2023-02-24T02:56:21.002Z,0
2023-02-24T03:01:25.206Z,0
2023-02-24T03:06:29.344Z,0
2023-02-24T03:11:33.492Z,0
2023-02-24T03:16:37.686Z,0
2023-02-24T03:21:42.018Z,0
2023-02-24T03:26:44.066Z,0
2023-02-24T03:31:48.374Z,0
2023-02-24T03:36:50.528Z,0
2023-02-24T03:41:54.705Z,0
2023-02-24T03:46:58.818Z,0
2023-02-24T03:52:03.017Z,0
2023-02-24T03:57:07.140Z,0
2023-02-24T04:02:11.355Z,0
2023-02-24T04:07:15.501Z,0
2023-02-24T04:12:19.685Z,0
2023-02-24T04:17:23.823Z,0
2023-02-24T04:22:27.995Z,0
2023-02-24T04:27:32.151Z,0
2023-02-24T04:32:36.395Z,0
2023-02-24T04:37:40.490Z,0
2023-02-24T04:42:44.642Z,0
2023-02-24T04:47:48.800Z,0
2023-02-24T04:52:52.980Z,0
2023-02-24T04:57:57.140Z,0
2023-02-24T05:03:01.391Z,0
2023-02-24T05:08:05.461Z,0
2023-02-24T05:13:09.616Z,0
2023-02-24T05:23:17.972Z,0
2023-02-24T05:28:20.261Z,0
2023-02-24T05:33:24.393Z,0
2023-02-24T05:38:26.664Z,0
2023-02-24T05:43:30.862Z,0
2023-02-24T05:48:35.121Z,0
2023-02-24T05:53:39.130Z,0
2023-02-24T05:58:43.332Z,0
2023-02-24T06:03:47.497Z,0
2023-02-24T06:08:51.693Z,1
2023-02-24T06:13:55.857Z,5
2023-02-24T06:18:59.965Z,9
2023-02-24T06:24:04.171Z,25
2023-02-24T06:29:08.288Z,47
2023-02-24T06:34:12.457Z,80
2023-02-24T06:39:16.644Z,93
2023-02-24T06:44:20.844Z,135
2023-02-24T06:49:24.959Z,222
2023-02-24T06:54:29.130Z,288
2023-02-24T06:59:33.294Z,466
2023-02-24T07:04:37.925Z,543
2023-02-24T07:09:41.632Z,603
2023-02-24T07:14:45.789Z,835
2023-02-24T07:19:49.976Z,825
2023-02-24T07:24:52.241Z,855
2023-02-24T07:29:56.398Z,935
2023-02-24T07:35:00.579Z,1330
2023-02-24T07:40:04.727Z,1597
2023-02-24T07:45:08.979Z,1871
2023-02-24T07:50:13.051Z,1933
2023-02-24T07:55:17.186Z,1954
2023-02-24T08:00:21.373Z,2110
2023-02-24T08:05:25.593Z,2978
2023-02-24T08:10:29.720Z,2840
2023-02-24T08:15:34.352Z,2571
2023-02-24T08:20:37.997Z,2192
2023-02-24T08:25:42.190Z,2723
2023-02-24T08:30:46.867Z,3491
2023-02-24T08:35:50.531Z,3471
2023-02-24T08:40:55.212Z,3721
2023-02-24T08:45:59.010Z,3826
2023-02-24T08:51:03.009Z,3135
2023-02-24T08:56:07.182Z,2289
2023-02-24T09:01:11.441Z,2808
2023-02-24T09:06:15.505Z,2709
2023-02-24T09:11:17.779Z,2853
2023-02-24T09:16:22.031Z,3917
2023-02-24T09:21:24.224Z,4085
2023-02-24T09:26:28.369Z,4110
2023-02-24T09:31:30.863Z,4838
2023-02-24T09:36:34.825Z,4196
2023-02-24T09:41:39.001Z,3775
2023-02-24T09:46:43.189Z,3213
2023-02-24T09:51:47.298Z,4149
2023-02-24T09:56:51.468Z,4345
2023-02-24T10:01:55.678Z,4435
2023-02-24T10:06:59.804Z,4062
2023-02-24T10:12:04.055Z,4162
2023-02-24T10:17:08.119Z,3790
2023-02-24T10:22:12.314Z,3474
2023-02-24T10:27:17.077Z,3394
2023-02-24T10:32:20.945Z,4135
2023-02-24T10:37:28.830Z,3458
2023-02-24T10:42:28.982Z,3087
2023-02-24T10:47:33.162Z,3535
2023-02-24T10:52:37.275Z,3739
2023-02-24T10:57:53.547Z,3638
2023-02-24T11:02:45.699Z,3810
2023-02-24T11:07:49.743Z,4665
2023-02-24T11:13:00.990Z,4155
2023-02-24T11:17:56.288Z,4576
2023-02-24T11:23:00.398Z,4395
2023-02-24T11:28:02.644Z,4369
2023-02-24T11:33:06.796Z,4980
2023-02-24T11:38:10.955Z,5294
2023-02-24T11:43:15.150Z,4049
2023-02-24T11:48:19.325Z,5590
2023-02-24T11:53:23.447Z,6225
2023-02-24T11:58:27.607Z,4218
2023-02-24T12:03:31.792Z,5097
2023-02-24T12:08:35.951Z,3556
2023-02-24T12:13:40.093Z,4435
2023-02-24T12:18:44.277Z,3893
2023-02-24T12:23:48.442Z,4375
2023-02-24T12:28:52.601Z,4198
2023-02-24T12:33:56.763Z,4823
2023-02-24T12:39:00.986Z,4087
2023-02-24T12:44:05.067Z,4010
2023-02-24T12:49:09.251Z,3791
2023-02-24T12:54:13.425Z,3666
2023-02-24T12:59:17.556Z,4820
2023-02-24T13:04:21.852Z,3508
2023-02-24T13:09:25.906Z,3371
2023-02-24T13:14:28.204Z,3138
2023-02-24T13:19:32.377Z,2821
2023-02-24T13:24:36.523Z,3521
2023-02-24T13:29:38.819Z,2767
2023-02-24T13:34:42.963Z,2447
2023-02-24T13:39:47.114Z,2101
2023-02-24T13:44:51.289Z,2181
2023-02-24T13:49:55.466Z,2231
2023-02-24T13:54:59.613Z,1768
2023-02-24T14:00:03.751Z,2242
2023-02-24T14:05:07.969Z,1880
2023-02-24T14:10:13.334Z,1429
2023-02-24T14:15:16.290Z,1450
2023-02-24T14:20:20.436Z,1719
2023-02-24T14:25:24.608Z,1175
2023-02-24T14:30:28.856Z,1316
2023-02-24T14:35:32.935Z,760
2023-02-24T14:40:37.115Z,785
2023-02-24T14:45:41.255Z,812
2023-02-24T14:50:45.410Z,1039
2023-02-24T15:00:53.759Z,872
2023-02-24T15:05:57.903Z,819
2023-02-24T15:11:02.109Z,1418
2023-02-24T15:16:06.296Z,1887
2023-02-24T15:21:08.483Z,3043
2023-02-24T15:26:12.658Z,1424
2023-02-24T15:31:15.075Z,660
2023-02-24T15:36:19.390Z,730
2023-02-24T15:41:23.261Z,1023
2023-02-24T15:46:27.459Z,1094
2023-02-24T15:51:31.613Z,1750
2023-02-24T15:56:35.737Z,915
2023-02-24T16:01:39.926Z,755
2023-02-24T16:06:44.105Z,1249
2023-02-24T16:11:48.259Z,1082
2023-02-24T16:16:52.555Z,232
2023-02-24T16:27:00.741Z,140
2023-02-24T16:32:05.321Z,243
2023-02-24T16:37:09.084Z,202
2023-02-24T16:42:13.354Z,368
2023-02-24T16:47:17.407Z,365
2023-02-24T16:52:21.558Z,389
2023-02-24T16:57:25.949Z,235
2023-02-24T17:02:29.868Z,114
2023-02-24T17:07:34.076Z,73
2023-02-24T17:12:38.266Z,24
2023-02-24T17:17:42.376Z,9
2023-02-24T17:22:44.637Z,6
2023-02-24T17:27:48.860Z,3
2023-02-24T17:32:51.137Z,1
2023-02-24T17:37:55.244Z,0
2023-02-24T17:42:59.394Z,0
2023-02-24T17:48:03.580Z,0
2023-02-24T17:53:07.740Z,0
2023-02-24T17:58:11.935Z,0
2023-02-24T18:03:16.126Z,0
2023-02-24T18:08:20.224Z,0
2023-02-24T18:13:24.381Z,0
2023-02-24T18:18:28.582Z,0
2023-02-24T18:23:32.715Z,0
2023-02-24T18:28:36.868Z,0
2023-02-24T18:33:41.094Z,0
2023-02-24T18:38:45.215Z,0
2023-02-24T18:43:49.362Z,0
2023-02-24T18:48:53.554Z,0
2023-02-24T18:53:57.710Z,0
2023-02-24T18:59:01.922Z,0
2023-02-24T19:04:06.058Z,0
2023-02-24T19:09:08.302Z,0
2023-02-24T19:14:12.450Z,0
2023-02-24T19:19:14.803Z,0
2023-02-24T19:24:18.918Z,0
2023-02-24T19:29:23.076Z,0
2023-02-24T19:34:27.253Z,0
2023-02-24T19:39:31.405Z,0
2023-02-24T19:44:35.562Z,0
2023-02-24T19:49:39.715Z,0
2023-02-24T19:54:43.898Z,0
2023-02-24T19:59:48.076Z,0
2023-02-24T20:04:52.278Z,0
2023-02-24T20:09:56.415Z,0
2023-02-24T20:15:00.577Z,0
2023-02-24T20:20:04.730Z,0
2023-02-24T20:25:08.888Z,0
2023-02-24T20:30:13.070Z,0
2023-02-24T20:35:17.233Z,0
2023-02-24T20:40:21.365Z,0
2023-02-24T20:45:25.567Z,0
2023-02-24T20:50:29.715Z,0
2023-02-24T20:55:33.892Z,0
2023-02-24T21:00:37.999Z,0
2023-02-24T21:05:40.295Z,0
2023-02-24T21:10:44.449Z,0
2023-02-24T21:15:46.769Z,0
2023-02-24T21:20:50.916Z,0
2023-02-24T21:25:53.162Z,0
2023-02-24T21:30:57.418Z,0
2023-02-24T21:36:01.514Z,0
2023-02-24T21:41:05.649Z,0
2023-02-24T21:46:09.883Z,0
2023-02-24T21:51:14.003Z,0
2023-02-24T21:56:18.168Z,0
2023-02-24T22:01:22.497Z,0
2023-02-24T22:06:28.409Z,0
2023-02-24T22:11:30.888Z,0
2023-02-24T22:16:34.952Z,0
2023-02-24T22:21:38.981Z,0
2023-02-24T22:26:43.156Z,0
2023-02-24T22:31:49.595Z,0
2023-02-24T22:36:51.452Z,0
2023-02-24T22:41:55.634Z,0
2023-02-24T22:46:59.836Z,0
2023-02-24T22:52:03.946Z,0
2023-02-24T22:57:08.107Z,0
2023-02-24T23:02:12.279Z,0
2023-02-24T23:07:16.472Z,0
2023-02-24T23:12:18.744Z,0
2023-02-24T23:17:22.911Z,0
2023-02-24T23:22:25.204Z,0
2023-02-24T23:27:51.445Z,0
2023-02-24T23:32:33.828Z,0
2023-02-24T23:37:37.625Z,0
2023-02-24T23:42:41.846Z,0
2023-02-24T23:47:46.002Z,0
2023-02-24T23:52:50.163Z,0
2023-02-24T23:57:54.323Z,0
